Time;durP1;ratioP1;P1;durP2;ratioP2;P2;SDS_P1;SDS_P2;PMS_P1;PMS_P2;Temp;Humidity;BMP_temperature;BMP_pressure;BME280_temperature;BME280_humidity;BME280_pressure;Samples;Min_cycle;Max_cycle;Signal;HPM_P1;HPM_P2
2022/06/17 00:01:41;;;;;;;4.30;3.90;;;;;;;;;;4943561;29;20434;-75
2022/06/17 00:04:09;;;;;;;3.50;3.20;;;;;;;;;;4939673;28;20922;-74
2022/06/17 00:06:38;;;;;;;5.80;3.97;;;;;;;;;;4950221;28;21065;-74
2022/06/17 00:09:06;;;;;;;4.10;3.70;;;;;;;;;;4951809;29;20672;-75
2022/06/17 00:11:34;;;;;;;5.00;4.40;;;;;;;;;;4953235;29;20441;-75
2022/06/17 00:14:01;;;;;;;3.70;3.40;;;;;;;;;;4952874;28;20449;-75
2022/06/17 00:16:30;;;;;;;6.13;4.07;;;;;;;;;;4953070;28;20837;-75
2022/06/17 00:18:57;;;;;;;5.17;4.33;;;;;;;;;;4954895;28;20469;-75
2022/06/17 00:21:26;;;;;;;4.27;3.67;;;;;;;;;;4955234;29;20540;-76
2022/06/17 00:23:53;;;;;;;5.20;4.20;;;;;;;;;;4942167;28;20420;-76
2022/06/17 00:26:21;;;;;;;7.30;4.30;;;;;;;;;;4939734;29;20473;-74
2022/06/17 00:28:48;;;;;;;4.80;4.30;;;;;;;;;;4934469;29;20790;-76
2022/06/17 00:31:15;;;;;;;6.27;4.53;;;;;;;;;;4933809;29;20451;-75
2022/06/17 00:33:44;;;;;;;4.63;4.23;;;;;;;;;;4933998;29;20771;-76
2022/06/17 00:36:13;;;;;;;6.70;4.27;;;;;;;;;;4934335;29;20469;-75
2022/06/17 00:38:40;;;;;;;4.53;3.80;;;;;;;;;;4933808;28;20458;-75
2022/06/17 00:41:13;;;;;;;5.20;4.43;;;;;;;;;;4955270;29;20427;-74
2022/06/17 00:43:42;;;;;;;6.63;5.00;;;;;;;;;;4954088;28;20447;-75
2022/06/17 00:46:13;;;;;;;6.40;4.03;;;;;;;;;;4939602;29;20461;-75
2022/06/17 00:48:42;;;;;;;4.97;4.23;;;;;;;;;;4939642;29;20432;-74
2022/06/17 00:51:14;;;;;;;6.40;4.30;;;;;;;;;;4952033;28;20449;-75
2022/06/17 00:53:43;;;;;;;6.60;5.00;;;;;;;;;;4952817;28;20450;-76
2022/06/17 00:56:14;;;;;;;4.27;3.90;;;;;;;;;;4955093;28;20535;-75
2022/06/17 00:58:55;;;;;;;5.37;4.27;;;;;;;;;;4957567;28;20447;-77
2022/06/17 01:01:23;;;;;;;6.00;4.80;;;;;;;;;;4956673;28;20477;-76
2022/06/17 01:03:52;;;;;;;5.37;4.47;;;;;;;;;;4958697;29;20417;-75
2022/06/17 01:06:22;;;;;;;4.67;4.27;;;;;;;;;;4956314;28;20459;-76
2022/06/17 01:11:34;;;;;;;5.07;4.57;;;;;;;;;;4939359;29;20489;-76
2022/06/17 01:14:02;;;;;;;5.50;3.80;;;;;;;;;;4937017;29;20457;-75
2022/06/17 01:16:31;;;;;;;4.33;3.70;;;;;;;;;;4937081;29;20583;-75
2022/06/17 01:18:59;;;;;;;4.57;4.17;;;;;;;;;;4936036;29;20422;-75
2022/06/17 01:21:31;;;;;;;4.20;3.80;;;;;;;;;;4937517;29;20457;-75
2022/06/17 01:24:00;;;;;;;4.00;3.60;;;;;;;;;;4947438;28;20427;-76
2022/06/17 01:26:27;;;;;;;4.60;4.20;;;;;;;;;;4956919;29;20461;-75
2022/06/17 01:28:55;;;;;;;4.97;3.90;;;;;;;;;;4952926;29;20527;-77
2022/06/17 01:31:23;;;;;;;3.57;3.27;;;;;;;;;;4942740;28;20886;-76
2022/06/17 01:33:50;;;;;;;4.00;3.37;;;;;;;;;;4947304;28;20438;-75
2022/06/17 01:36:20;;;;;;;4.20;3.80;;;;;;;;;;4955717;28;20473;-74
2022/06/17 01:38:48;;;;;;;4.33;3.60;;;;;;;;;;4955524;28;20568;-75
2022/06/17 01:41:17;;;;;;;3.60;3.20;;;;;;;;;;4956129;28;20846;-78
2022/06/17 01:43:47;;;;;;;6.13;3.80;;;;;;;;;;4955280;29;20932;-76
2022/06/17 01:46:17;;;;;;;5.10;4.47;;;;;;;;;;4956475;28;20487;-76
2022/06/17 01:48:47;;;;;;;7.73;3.83;;;;;;;;;;4956633;28;21021;-76
2022/06/17 01:51:15;;;;;;;4.27;3.87;;;;;;;;;;4950537;28;20435;-75
2022/06/17 01:53:45;;;;;;;4.57;4.20;;;;;;;;;;4942255;28;20536;-76
2022/06/17 01:56:14;;;;;;;7.37;4.27;;;;;;;;;;4948518;28;20460;-76
2022/06/17 01:58:45;;;;;;;3.97;3.57;;;;;;;;;;4955148;28;20551;-75
2022/06/17 02:01:14;;;;;;;4.30;3.90;;;;;;;;;;4955466;28;20783;-74
2022/06/17 02:03:43;;;;;;;4.20;3.80;;;;;;;;;;4954310;29;20679;-76
2022/06/17 02:06:11;;;;;;;4.17;3.87;;;;;;;;;;4955748;28;20568;-75
2022/06/17 02:08:39;;;;;;;4.50;4.20;;;;;;;;;;4956438;29;20450;-76
2022/06/17 02:11:07;;;;;;;5.00;4.30;;;;;;;;;;4957483;28;20430;-77
2022/06/17 02:13:35;;;;;;;4.20;3.77;;;;;;;;;;4948361;28;20803;-76
2022/06/17 02:16:05;;;;;;;6.30;3.70;;;;;;;;;;4940233;28;20461;-75
2022/06/17 02:18:33;;;;;;;7.60;4.07;;;;;;;;;;4947949;28;20482;-75
2022/06/17 02:21:02;;;;;;;5.57;4.00;;;;;;;;;;4955166;29;20830;-76
2022/06/17 02:23:30;;;;;;;4.73;4.33;;;;;;;;;;4955074;28;20877;-76
2022/06/17 02:26:00;;;;;;;4.07;3.73;;;;;;;;;;4955076;28;20478;-76
2022/06/17 02:28:29;;;;;;;4.13;3.70;;;;;;;;;;4955244;29;20420;-75
2022/06/17 02:30:57;;;;;;;4.37;4.00;;;;;;;;;;4954867;28;20458;-75
2022/06/17 02:33:26;;;;;;;5.93;4.20;;;;;;;;;;4956007;28;20442;-76
2022/06/17 02:35:55;;;;;;;4.77;4.27;;;;;;;;;;4946433;29;20501;-75
2022/06/17 02:38:25;;;;;;;5.20;4.20;;;;;;;;;;4941045;28;20765;-75
2022/06/17 02:40:53;;;;;;;5.03;4.33;;;;;;;;;;4936873;29;20451;-76
2022/06/17 02:43:23;;;;;;;5.70;5.13;;;;;;;;;;4934074;29;20450;-75
2022/06/17 02:45:52;;;;;;;5.10;4.60;;;;;;;;;;4935599;29;20466;-76
2022/06/17 02:48:21;;;;;;;4.90;4.40;;;;;;;;;;4936094;29;20468;-75
2022/06/17 02:50:50;;;;;;;5.07;4.63;;;;;;;;;;4935488;29;20443;-75
2022/06/17 02:53:17;;;;;;;5.43;4.50;;;;;;;;;;4955123;28;20450;-75
2022/06/17 02:55:45;;;;;;;5.00;4.57;;;;;;;;;;4956374;29;20469;-76
2022/06/17 02:58:14;;;;;;;5.33;4.83;;;;;;;;;;4944168;29;20485;-75
2022/06/17 03:00:42;;;;;;;4.57;4.17;;;;;;;;;;4941177;29;20438;-76
2022/06/17 03:03:12;;;;;;;5.23;4.73;;;;;;;;;;4936011;29;20806;-75
2022/06/17 03:05:40;;;;;;;6.57;4.80;;;;;;;;;;4934888;29;20470;-75
2022/06/17 03:08:15;;;;;;;4.80;4.40;;;;;;;;;;4935044;29;20553;-76
2022/06/17 03:10:43;;;;;;;7.70;5.20;;;;;;;;;;4934304;29;20443;-76
2022/06/17 03:13:11;;;;;;;6.23;4.80;;;;;;;;;;4935701;29;20450;-76
2022/06/17 03:15:39;;;;;;;5.00;4.50;;;;;;;;;;4956347;28;20479;-75
2022/06/17 03:18:06;;;;;;;5.67;4.30;;;;;;;;;;4955615;28;20485;-75
2022/06/17 03:20:35;;;;;;;6.43;5.00;;;;;;;;;;4942071;29;20441;-76
2022/06/17 03:23:06;;;;;;;5.03;4.63;;;;;;;;;;4939129;28;20413;-75
2022/06/17 03:25:37;;;;;;;7.27;5.00;;;;;;;;;;4934651;29;20820;-75
2022/06/17 03:28:08;;;;;;;6.00;4.77;;;;;;;;;;4934548;29;20442;-76
2022/06/17 03:30:38;;;;;;;6.07;5.00;;;;;;;;;;4934708;29;20900;-75
2022/06/17 03:33:07;;;;;;;6.47;5.77;;;;;;;;;;4935152;29;20453;-76
2022/06/17 03:35:37;;;;;;;8.77;5.30;;;;;;;;;;4938128;28;20993;-76
2022/06/17 03:38:07;;;;;;;6.20;5.30;;;;;;;;;;4955734;29;20492;-76
2022/06/17 03:40:38;;;;;;;5.43;4.93;;;;;;;;;;4954940;29;20450;-76
2022/06/17 03:43:07;;;;;;;5.50;5.00;;;;;;;;;;4940355;28;20808;-76
2022/06/17 03:45:43;;;;;;;6.20;5.60;;;;;;;;;;4940143;29;20468;-76
2022/06/17 03:48:20;;;;;;;6.97;6.10;;;;;;;;;;4933689;29;20486;-75
2022/06/17 03:50:50;;;;;;;7.00;6.30;;;;;;;;;;4934353;29;20446;-76
2022/06/17 03:53:23;;;;;;;6.40;5.80;;;;;;;;;;4934560;29;20450;-76
2022/06/17 03:55:52;;;;;;;6.13;5.53;;;;;;;;;;4934654;29;20549;-76
2022/06/17 03:58:20;;;;;;;7.57;5.03;;;;;;;;;;4943061;29;20489;-75
2022/06/17 04:00:49;;;;;;;7.43;5.43;;;;;;;;;;4955663;28;20925;-75
2022/06/17 04:03:18;;;;;;;9.10;5.37;;;;;;;;;;4950564;28;20441;-75
2022/06/17 04:05:48;;;;;;;4.67;4.27;;;;;;;;;;4939509;29;21000;-75
2022/06/17 04:08:15;;;;;;;5.13;4.63;;;;;;;;;;4944470;28;20437;-75
2022/06/17 04:10:43;;;;;;;4.93;4.43;;;;;;;;;;4953134;28;20449;-75
2022/06/17 04:13:15;;;;;;;6.00;4.53;;;;;;;;;;4953108;29;20442;-75
2022/06/17 04:15:48;;;;;;;5.20;4.27;;;;;;;;;;4953386;28;20461;-75
2022/06/17 04:18:16;;;;;;;5.40;4.60;;;;;;;;;;4953649;28;20495;-76
2022/06/17 04:20:45;;;;;;;4.80;4.30;;;;;;;;;;4953948;28;20456;-76
2022/06/17 04:23:13;;;;;;;6.33;4.93;;;;;;;;;;4955313;28;20452;-76
2022/06/17 04:25:43;;;;;;;5.30;4.80;;;;;;;;;;4947168;29;20955;-75
2022/06/17 04:28:13;;;;;;;4.97;4.47;;;;;;;;;;4939848;28;20545;-75
2022/06/17 04:30:42;;;;;;;5.90;4.50;;;;;;;;;;4949801;29;20532;-75
2022/06/17 04:33:14;;;;;;;6.50;4.80;;;;;;;;;;4955736;28;20437;-76
2022/06/17 04:35:41;;;;;;;8.63;4.30;;;;;;;;;;4955554;28;20553;-75
2022/06/17 04:38:08;;;;;;;7.20;4.47;;;;;;;;;;4956619;28;20485;-76
2022/06/17 04:40:38;;;;;;;5.20;4.53;;;;;;;;;;4957535;28;20421;-75
2022/06/17 04:43:06;;;;;;;7.40;4.10;;;;;;;;;;4958008;28;20439;-74
2022/06/17 04:45:34;;;;;;;4.80;4.30;;;;;;;;;;4958901;28;20466;-75
2022/06/17 04:48:01;;;;;;;5.30;4.13;;;;;;;;;;4949868;29;20892;-76
2022/06/17 04:50:31;;;;;;;6.67;4.43;;;;;;;;;;4943315;29;20423;-76
2022/06/17 04:52:58;;;;;;;11.10;4.60;;;;;;;;;;4949884;28;20489;-75
2022/06/17 04:55:28;;;;;;;6.53;4.53;;;;;;;;;;4956668;29;20502;-74
2022/06/17 04:57:55;;;;;;;4.80;3.97;;;;;;;;;;4955389;28;20904;-75
2022/06/17 05:00:23;;;;;;;6.50;4.17;;;;;;;;;;4956644;28;20426;-75
2022/06/17 05:02:52;;;;;;;4.27;3.87;;;;;;;;;;4956755;28;20428;-76
2022/06/17 05:05:23;;;;;;;4.60;3.97;;;;;;;;;;4957552;28;20445;-74
2022/06/17 05:07:52;;;;;;;4.53;4.13;;;;;;;;;;4958558;29;20456;-75
2022/06/17 05:10:21;;;;;;;5.10;3.97;;;;;;;;;;4947810;29;20443;-75
2022/06/17 05:12:50;;;;;;;4.47;3.70;;;;;;;;;;4941868;29;20443;-75
2022/06/17 05:15:19;;;;;;;4.50;3.47;;;;;;;;;;4952195;28;20505;-75
2022/06/17 05:17:46;;;;;;;5.33;3.60;;;;;;;;;;4955836;28;20477;-75
2022/06/17 05:20:16;;;;;;;4.03;3.63;;;;;;;;;;4956413;28;20445;-75
2022/06/17 05:22:46;;;;;;;4.27;3.40;;;;;;;;;;4956746;29;20456;-75
2022/06/17 05:25:15;;;;;;;3.93;3.00;;;;;;;;;;4955149;28;20453;-75
2022/06/17 05:27:42;;;;;;;3.50;3.20;;;;;;;;;;4956355;28;20958;-75
2022/06/17 05:30:11;;;;;;;4.90;3.50;;;;;;;;;;4958089;28;20528;-76
2022/06/17 05:32:39;;;;;;;4.00;3.30;;;;;;;;;;4946038;28;20437;-75
2022/06/17 05:35:07;;;;;;;4.00;3.10;;;;;;;;;;4942557;29;20812;-75
2022/06/17 05:37:35;;;;;;;7.53;4.17;;;;;;;;;;4937237;28;20442;-75
2022/06/17 05:40:03;;;;;;;3.40;3.10;;;;;;;;;;4936280;29;20442;-76
2022/06/17 05:42:30;;;;;;;4.20;3.80;;;;;;;;;;4935795;29;20937;-74
2022/06/17 05:44:57;;;;;;;4.40;3.57;;;;;;;;;;4937241;29;20453;-76
2022/06/17 05:47:24;;;;;;;6.93;3.60;;;;;;;;;;4936531;29;20803;-75
2022/06/17 05:49:52;;;;;;;3.50;3.20;;;;;;;;;;4953148;28;20442;-75
2022/06/17 05:52:19;;;;;;;4.27;3.47;;;;;;;;;;4942145;29;20460;-75
2022/06/17 05:54:48;;;;;;;3.73;3.07;;;;;;;;;;4945917;28;20445;-73
2022/06/17 05:57:16;;;;;;;3.43;2.90;;;;;;;;;;4955252;28;20826;-75
2022/06/17 05:59:43;;;;;;;4.43;3.80;;;;;;;;;;4955271;28;20499;-76
2022/06/17 06:02:11;;;;;;;5.27;3.80;;;;;;;;;;4955855;28;20450;-73
2022/06/17 06:04:38;;;;;;;5.97;3.63;;;;;;;;;;4955767;28;21034;-74
2022/06/17 06:07:05;;;;;;;4.07;3.10;;;;;;;;;;4955690;28;20478;-75
2022/06/17 06:09:33;;;;;;;4.13;3.37;;;;;;;;;;4957401;28;20963;-74
2022/06/17 06:12:01;;;;;;;5.47;3.50;;;;;;;;;;4955267;29;21028;-73
2022/06/17 06:14:28;;;;;;;3.70;3.37;;;;;;;;;;4941483;28;20433;-73
2022/06/17 06:16:56;;;;;;;9.33;4.00;;;;;;;;;;4940881;29;20465;-74
2022/06/17 06:19:23;;;;;;;3.30;3.00;;;;;;;;;;4935141;29;20490;-74
2022/06/17 06:21:50;;;;;;;5.53;3.17;;;;;;;;;;4935676;29;20439;-73
2022/06/17 06:24:17;;;;;;;6.63;3.33;;;;;;;;;;4936050;29;20450;-72
